sensor_id;sensor_type;location;lat;lon;timestamp;P1;durP1;ratioP1;P2;durP2;ratioP2
38455;SDS011;24237;50.106;20.014;2023-04-15T00:01:18;7.28;;;3.72;;
38455;SDS011;24237;50.106;20.014;2023-04-15T00:03:44;8.32;;;4.05;;
38455;SDS011;24237;50.106;20.014;2023-04-15T00:06:11;7.35;;;4.07;;
38455;SDS011;24237;50.106;20.014;2023-04-15T00:08:37;6.15;;;3.38;;
38455;SDS011;24237;50.106;20.014;2023-04-15T00:11:03;9.10;;;3.72;;
38455;SDS011;24237;50.106;20.014;2023-04-15T00:13:30;7.05;;;3.03;;
38455;SDS011;24237;50.106;20.014;2023-04-15T00:15:56;11.18;;;3.30;;
38455;SDS011;24237;50.106;20.014;2023-04-15T00:18:22;5.80;;;3.15;;
38455;SDS011;24237;50.106;20.014;2023-04-15T00:20:48;7.70;;;2.83;;
38455;SDS011;24237;50.106;20.014;2023-04-15T00:23:14;8.18;;;3.08;;
38455;SDS011;24237;50.106;20.014;2023-04-15T00:25:40;10.02;;;3.25;;
38455;SDS011;24237;50.106;20.014;2023-04-15T00:28:05;8.32;;;2.67;;
38455;SDS011;24237;50.106;20.014;2023-04-15T00:30:32;11.02;;;2.88;;
38455;SDS011;24237;50.106;20.014;2023-04-15T00:32:59;8.20;;;2.47;;
38455;SDS011;24237;50.106;20.014;2023-04-15T00:35:26;7.32;;;3.30;;
38455;SDS011;24237;50.106;20.014;2023-04-15T00:37:51;9.93;;;3.33;;
38455;SDS011;24237;50.106;20.014;2023-04-15T00:40:18;9.07;;;3.42;;
38455;SDS011;24237;50.106;20.014;2023-04-15T00:42:45;8.82;;;3.35;;
38455;SDS011;24237;50.106;20.014;2023-04-15T00:45:11;7.20;;;3.53;;
38455;SDS011;24237;50.106;20.014;2023-04-15T00:47:37;7.70;;;3.72;;
38455;SDS011;24237;50.106;20.014;2023-04-15T00:50:05;8.18;;;3.35;;
38455;SDS011;24237;50.106;20.014;2023-04-15T00:52:32;7.35;;;3.15;;
38455;SDS011;24237;50.106;20.014;2023-04-15T00:54:58;6.18;;;2.53;;
38455;SDS011;24237;50.106;20.014;2023-04-15T00:57:24;5.53;;;2.53;;
38455;SDS011;24237;50.106;20.014;2023-04-15T01:02:19;8.43;;;2.42;;
38455;SDS011;24237;50.106;20.014;2023-04-15T01:04:45;5.82;;;2.70;;
38455;SDS011;24237;50.106;20.014;2023-04-15T01:07:11;5.75;;;2.30;;
38455;SDS011;24237;50.106;20.014;2023-04-15T01:09:37;5.10;;;2.25;;
38455;SDS011;24237;50.106;20.014;2023-04-15T01:12:03;4.90;;;2.25;;
38455;SDS011;24237;50.106;20.014;2023-04-15T01:14:29;6.20;;;2.25;;
38455;SDS011;24237;50.106;20.014;2023-04-15T01:16:55;4.78;;;2.33;;
38455;SDS011;24237;50.106;20.014;2023-04-15T01:19:21;5.13;;;2.72;;
38455;SDS011;24237;50.106;20.014;2023-04-15T01:21:47;9.23;;;3.97;;
38455;SDS011;24237;50.106;20.014;2023-04-15T01:24:13;6.78;;;3.60;;
38455;SDS011;24237;50.106;20.014;2023-04-15T01:26:42;7.57;;;3.30;;
38455;SDS011;24237;50.106;20.014;2023-04-15T01:29:07;8.50;;;3.15;;
38455;SDS011;24237;50.106;20.014;2023-04-15T01:31:33;7.80;;;3.10;;
38455;SDS011;24237;50.106;20.014;2023-04-15T01:33:59;6.65;;;2.80;;
38455;SDS011;24237;50.106;20.014;2023-04-15T01:36:25;4.95;;;2.53;;
38455;SDS011;24237;50.106;20.014;2023-04-15T01:38:51;6.68;;;2.97;;
38455;SDS011;24237;50.106;20.014;2023-04-15T01:41:20;8.02;;;2.85;;
38455;SDS011;24237;50.106;20.014;2023-04-15T01:43:52;9.10;;;3.85;;
38455;SDS011;24237;50.106;20.014;2023-04-15T01:46:18;10.70;;;3.60;;
38455;SDS011;24237;50.106;20.014;2023-04-15T01:48:44;10.23;;;3.65;;
38455;SDS011;24237;50.106;20.014;2023-04-15T01:51:10;8.88;;;3.75;;
38455;SDS011;24237;50.106;20.014;2023-04-15T01:53:36;8.90;;;3.20;;
38455;SDS011;24237;50.106;20.014;2023-04-15T01:56:01;4.70;;;2.35;;
38455;SDS011;24237;50.106;20.014;2023-04-15T01:58:27;5.57;;;2.35;;
38455;SDS011;24237;50.106;20.014;2023-04-15T02:00:53;6.85;;;2.17;;
38455;SDS011;24237;50.106;20.014;2023-04-15T02:03:18;4.85;;;2.40;;
38455;SDS011;24237;50.106;20.014;2023-04-15T02:05:44;4.10;;;2.25;;
38455;SDS011;24237;50.106;20.014;2023-04-15T02:08:10;6.28;;;2.33;;
38455;SDS011;24237;50.106;20.014;2023-04-15T02:10:36;5.22;;;2.10;;
38455;SDS011;24237;50.106;20.014;2023-04-15T02:13:02;8.02;;;1.67;;
38455;SDS011;24237;50.106;20.014;2023-04-15T02:15:28;4.13;;;2.13;;
38455;SDS011;24237;50.106;20.014;2023-04-15T02:17:54;2.78;;;1.80;;
38455;SDS011;24237;50.106;20.014;2023-04-15T02:20:20;3.63;;;1.85;;
38455;SDS011;24237;50.106;20.014;2023-04-15T02:22:46;6.32;;;2.00;;
38455;SDS011;24237;50.106;20.014;2023-04-15T02:25:12;5.32;;;2.10;;
38455;SDS011;24237;50.106;20.014;2023-04-15T02:27:38;4.13;;;1.65;;
38455;SDS011;24237;50.106;20.014;2023-04-15T02:30:04;4.15;;;1.70;;
38455;SDS011;24237;50.106;20.014;2023-04-15T02:32:31;5.82;;;2.13;;
38455;SDS011;24237;50.106;20.014;2023-04-15T02:35:06;6.25;;;2.67;;
38455;SDS011;24237;50.106;20.014;2023-04-15T02:37:34;7.53;;;3.00;;
38455;SDS011;24237;50.106;20.014;2023-04-15T02:40:06;9.15;;;3.78;;
38455;SDS011;24237;50.106;20.014;2023-04-15T02:42:33;9.85;;;3.60;;
38455;SDS011;24237;50.106;20.014;2023-04-15T02:44:59;8.07;;;4.20;;
38455;SDS011;24237;50.106;20.014;2023-04-15T02:47:24;14.35;;;4.45;;
38455;SDS011;24237;50.106;20.014;2023-04-15T02:49:50;10.73;;;4.00;;
38455;SDS011;24237;50.106;20.014;2023-04-15T02:52:16;9.32;;;4.05;;
38455;SDS011;24237;50.106;20.014;2023-04-15T02:54:42;6.68;;;2.60;;
38455;SDS011;24237;50.106;20.014;2023-04-15T02:57:08;5.38;;;2.10;;
38455;SDS011;24237;50.106;20.014;2023-04-15T02:59:35;3.15;;;2.00;;
38455;SDS011;24237;50.106;20.014;2023-04-15T03:02:01;3.67;;;1.30;;
38455;SDS011;24237;50.106;20.014;2023-04-15T03:04:27;5.68;;;1.60;;
38455;SDS011;24237;50.106;20.014;2023-04-15T03:06:54;2.42;;;1.60;;
38455;SDS011;24237;50.106;20.014;2023-04-15T03:09:20;4.20;;;1.40;;
38455;SDS011;24237;50.106;20.014;2023-04-15T03:11:46;4.28;;;1.30;;
38455;SDS011;24237;50.106;20.014;2023-04-15T03:14:12;3.60;;;1.20;;
38455;SDS011;24237;50.106;20.014;2023-04-15T03:16:38;2.47;;;1.40;;
38455;SDS011;24237;50.106;20.014;2023-04-15T03:19:03;4.68;;;1.70;;
38455;SDS011;24237;50.106;20.014;2023-04-15T03:21:29;1.75;;;1.17;;
38455;SDS011;24237;50.106;20.014;2023-04-15T03:23:55;2.00;;;1.00;;
38455;SDS011;24237;50.106;20.014;2023-04-15T03:26:28;4.25;;;1.13;;
38455;SDS011;24237;50.106;20.014;2023-04-15T03:28:55;2.17;;;1.30;;
38455;SDS011;24237;50.106;20.014;2023-04-15T03:31:21;1.80;;;1.00;;
38455;SDS011;24237;50.106;20.014;2023-04-15T03:33:47;1.63;;;1.10;;
38455;SDS011;24237;50.106;20.014;2023-04-15T03:36:13;0.90;;;0.70;;
38455;SDS011;24237;50.106;20.014;2023-04-15T03:38:39;4.38;;;1.83;;
38455;SDS011;24237;50.106;20.014;2023-04-15T03:41:05;3.50;;;1.70;;
38455;SDS011;24237;50.106;20.014;2023-04-15T03:43:31;2.05;;;1.30;;
38455;SDS011;24237;50.106;20.014;2023-04-15T03:45:57;3.30;;;1.35;;
38455;SDS011;24237;50.106;20.014;2023-04-15T03:48:23;1.83;;;1.17;;
38455;SDS011;24237;50.106;20.014;2023-04-15T03:50:48;2.45;;;1.13;;
38455;SDS011;24237;50.106;20.014;2023-04-15T03:53:14;2.85;;;1.38;;
38455;SDS011;24237;50.106;20.014;2023-04-15T03:55:40;1.88;;;0.95;;
38455;SDS011;24237;50.106;20.014;2023-04-15T03:58:06;9.98;;;1.77;;
38455;SDS011;24237;50.106;20.014;2023-04-15T04:00:31;7.57;;;1.83;;
38455;SDS011;24237;50.106;20.014;2023-04-15T04:02:57;7.78;;;1.50;;
38455;SDS011;24237;50.106;20.014;2023-04-15T04:05:23;4.85;;;1.77;;
38455;SDS011;24237;50.106;20.014;2023-04-15T04:07:48;7.57;;;1.80;;
38455;SDS011;24237;50.106;20.014;2023-04-15T04:10:14;2.75;;;1.60;;
38455;SDS011;24237;50.106;20.014;2023-04-15T04:12:40;4.32;;;1.40;;
38455;SDS011;24237;50.106;20.014;2023-04-15T04:15:06;2.90;;;1.23;;
38455;SDS011;24237;50.106;20.014;2023-04-15T04:17:32;4.00;;;1.00;;
38455;SDS011;24237;50.106;20.014;2023-04-15T04:19:58;3.33;;;1.42;;
38455;SDS011;24237;50.106;20.014;2023-04-15T04:22:23;4.53;;;1.30;;
38455;SDS011;24237;50.106;20.014;2023-04-15T04:24:49;2.28;;;1.30;;
38455;SDS011;24237;50.106;20.014;2023-04-15T04:27:15;8.98;;;1.70;;
38455;SDS011;24237;50.106;20.014;2023-04-15T04:29:41;17.20;;;2.88;;
38455;SDS011;24237;50.106;20.014;2023-04-15T04:32:07;12.48;;;2.22;;
38455;SDS011;24237;50.106;20.014;2023-04-15T04:34:32;7.57;;;2.08;;
38455;SDS011;24237;50.106;20.014;2023-04-15T04:36:58;5.70;;;1.65;;
38455;SDS011;24237;50.106;20.014;2023-04-15T04:39:24;7.47;;;1.90;;
38455;SDS011;24237;50.106;20.014;2023-04-15T04:41:50;7.13;;;2.05;;
38455;SDS011;24237;50.106;20.014;2023-04-15T04:44:18;12.55;;;1.67;;
38455;SDS011;24237;50.106;20.014;2023-04-15T04:46:44;8.63;;;2.25;;
38455;SDS011;24237;50.106;20.014;2023-04-15T04:49:09;7.90;;;1.73;;
38455;SDS011;24237;50.106;20.014;2023-04-15T04:51:35;4.80;;;1.45;;
38455;SDS011;24237;50.106;20.014;2023-04-15T04:54:01;3.30;;;1.58;;
38455;SDS011;24237;50.106;20.014;2023-04-15T04:56:27;4.82;;;1.92;;
38455;SDS011;24237;50.106;20.014;2023-04-15T04:58:52;2.83;;;1.85;;
38455;SDS011;24237;50.106;20.014;2023-04-15T05:01:18;8.88;;;1.73;;
38455;SDS011;24237;50.106;20.014;2023-04-15T05:03:44;5.30;;;1.73;;
38455;SDS011;24237;50.106;20.014;2023-04-15T05:06:10;5.53;;;1.48;;
38455;SDS011;24237;50.106;20.014;2023-04-15T05:08:35;3.22;;;1.63;;
38455;SDS011;24237;50.106;20.014;2023-04-15T05:11:02;3.67;;;1.63;;
38455;SDS011;24237;50.106;20.014;2023-04-15T05:13:28;4.43;;;1.35;;
38455;SDS011;24237;50.106;20.014;2023-04-15T05:15:54;7.60;;;1.95;;
38455;SDS011;24237;50.106;20.014;2023-04-15T05:18:20;7.57;;;1.42;;
38455;SDS011;24237;50.106;20.014;2023-04-15T05:20:45;2.95;;;1.33;;
38455;SDS011;24237;50.106;20.014;2023-04-15T05:23:11;2.25;;;1.30;;
38455;SDS011;24237;50.106;20.014;2023-04-15T05:25:38;2.88;;;1.27;;
38455;SDS011;24237;50.106;20.014;2023-04-15T05:28:03;3.50;;;1.57;;
38455;SDS011;24237;50.106;20.014;2023-04-15T05:30:29;4.13;;;1.50;;
38455;SDS011;24237;50.106;20.014;2023-04-15T05:32:55;2.53;;;1.70;;
38455;SDS011;24237;50.106;20.014;2023-04-15T05:35:21;6.05;;;1.85;;
38455;SDS011;24237;50.106;20.014;2023-04-15T05:37:47;2.55;;;1.85;;
38455;SDS011;24237;50.106;20.014;2023-04-15T05:40:12;2.85;;;1.33;;
38455;SDS011;24237;50.106;20.014;2023-04-15T05:42:39;2.47;;;1.50;;
38455;SDS011;24237;50.106;20.014;2023-04-15T05:45:05;5.20;;;1.55;;
38455;SDS011;24237;50.106;20.014;2023-04-15T05:47:33;2.10;;;1.58;;
38455;SDS011;24237;50.106;20.014;2023-04-15T05:49:59;4.00;;;1.67;;
38455;SDS011;24237;50.106;20.014;2023-04-15T05:52:25;7.40;;;2.08;;
38455;SDS011;24237;50.106;20.014;2023-04-15T05:54:51;3.88;;;1.90;;
38455;SDS011;24237;50.106;20.014;2023-04-15T05:57:17;4.80;;;1.80;;
38455;SDS011;24237;50.106;20.014;2023-04-15T05:59:42;2.50;;;1.73;;
38455;SDS011;24237;50.106;20.014;2023-04-15T06:02:09;3.28;;;1.63;;
38455;SDS011;24237;50.106;20.014;2023-04-15T06:04:34;10.02;;;1.80;;
38455;SDS011;24237;50.106;20.014;2023-04-15T06:07:01;3.83;;;1.83;;
38455;SDS011;24237;50.106;20.014;2023-04-15T06:09:26;4.07;;;1.92;;
38455;SDS011;24237;50.106;20.014;2023-04-15T06:11:53;3.65;;;1.83;;
38455;SDS011;24237;50.106;20.014;2023-04-15T06:14:18;7.53;;;2.13;;
38455;SDS011;24237;50.106;20.014;2023-04-15T06:16:44;4.13;;;1.75;;
38455;SDS011;24237;50.106;20.014;2023-04-15T06:19:10;3.25;;;1.70;;
38455;SDS011;24237;50.106;20.014;2023-04-15T06:21:36;3.55;;;1.80;;
38455;SDS011;24237;50.106;20.014;2023-04-15T06:24:03;5.93;;;1.63;;
38455;SDS011;24237;50.106;20.014;2023-04-15T06:26:29;6.50;;;2.60;;
38455;SDS011;24237;50.106;20.014;2023-04-15T06:28:55;7.97;;;1.80;;
38455;SDS011;24237;50.106;20.014;2023-04-15T06:31:21;3.88;;;2.00;;
38455;SDS011;24237;50.106;20.014;2023-04-15T06:33:48;2.58;;;1.40;;
38455;SDS011;24237;50.106;20.014;2023-04-15T06:36:13;2.85;;;1.88;;
38455;SDS011;24237;50.106;20.014;2023-04-15T06:38:39;5.85;;;2.55;;
38455;SDS011;24237;50.106;20.014;2023-04-15T06:41:05;6.13;;;2.63;;
38455;SDS011;24237;50.106;20.014;2023-04-15T06:43:31;10.60;;;2.70;;
38455;SDS011;24237;50.106;20.014;2023-04-15T06:45:57;4.03;;;2.05;;
38455;SDS011;24237;50.106;20.014;2023-04-15T06:48:23;4.55;;;2.30;;
38455;SDS011;24237;50.106;20.014;2023-04-15T06:50:48;6.72;;;3.33;;
38455;SDS011;24237;50.106;20.014;2023-04-15T06:53:14;5.72;;;2.70;;
38455;SDS011;24237;50.106;20.014;2023-04-15T06:55:40;5.95;;;2.85;;
38455;SDS011;24237;50.106;20.014;2023-04-15T06:58:06;13.13;;;2.72;;
38455;SDS011;24237;50.106;20.014;2023-04-15T07:00:31;7.18;;;2.67;;
38455;SDS011;24237;50.106;20.014;2023-04-15T07:02:58;5.25;;;2.40;;
38455;SDS011;24237;50.106;20.014;2023-04-15T07:05:27;4.85;;;2.30;;
38455;SDS011;24237;50.106;20.014;2023-04-15T07:07:53;4.53;;;2.10;;
38455;SDS011;24237;50.106;20.014;2023-04-15T07:10:19;4.05;;;1.73;;
38455;SDS011;24237;50.106;20.014;2023-04-15T07:12:45;4.18;;;2.33;;
38455;SDS011;24237;50.106;20.014;2023-04-15T07:15:12;3.25;;;1.85;;
38455;SDS011;24237;50.106;20.014;2023-04-15T07:17:39;5.82;;;2.10;;
38455;SDS011;24237;50.106;20.014;2023-04-15T07:20:07;3.60;;;2.28;;
38455;SDS011;24237;50.106;20.014;2023-04-15T07:22:33;6.75;;;2.15;;
38455;SDS011;24237;50.106;20.014;2023-04-15T07:24:59;5.30;;;2.17;;
38455;SDS011;24237;50.106;20.014;2023-04-15T07:27:25;10.00;;;2.67;;
38455;SDS011;24237;50.106;20.014;2023-04-15T07:29:51;6.05;;;2.90;;
38455;SDS011;24237;50.106;20.014;2023-04-15T07:32:17;4.45;;;2.60;;
38455;SDS011;24237;50.106;20.014;2023-04-15T07:34:43;7.80;;;2.60;;
38455;SDS011;24237;50.106;20.014;2023-04-15T07:37:09;3.65;;;2.80;;
38455;SDS011;24237;50.106;20.014;2023-04-15T07:39:35;3.25;;;2.15;;
38455;SDS011;24237;50.106;20.014;2023-04-15T07:42:01;6.47;;;2.60;;
38455;SDS011;24237;50.106;20.014;2023-04-15T07:44:28;3.42;;;2.28;;
38455;SDS011;24237;50.106;20.014;2023-04-15T07:46:57;5.50;;;2.53;;
38455;SDS011;24237;50.106;20.014;2023-04-15T07:49:22;8.40;;;2.33;;
38455;SDS011;24237;50.106;20.014;2023-04-15T07:51:48;5.00;;;2.38;;
38455;SDS011;24237;50.106;20.014;2023-04-15T07:54:14;4.75;;;2.50;;
38455;SDS011;24237;50.106;20.014;2023-04-15T07:56:40;6.32;;;2.75;;
38455;SDS011;24237;50.106;20.014;2023-04-15T07:59:06;5.57;;;2.75;;
38455;SDS011;24237;50.106;20.014;2023-04-15T08:01:33;9.80;;;3.00;;
38455;SDS011;24237;50.106;20.014;2023-04-15T08:03:59;5.75;;;3.03;;
38455;SDS011;24237;50.106;20.014;2023-04-15T08:06:24;4.50;;;2.60;;
38455;SDS011;24237;50.106;20.014;2023-04-15T08:08:51;4.22;;;2.25;;
38455;SDS011;24237;50.106;20.014;2023-04-15T08:11:18;6.75;;;2.55;;
38455;SDS011;24237;50.106;20.014;2023-04-15T08:13:45;4.57;;;2.45;;
38455;SDS011;24237;50.106;20.014;2023-04-15T08:21:16;3.78;;;2.50;;
38455;SDS011;24237;50.106;20.014;2023-04-15T08:23:43;4.23;;;2.67;;
38455;SDS011;24237;50.106;20.014;2023-04-15T08:26:10;5.78;;;2.63;;
38455;SDS011;24237;50.106;20.014;2023-04-15T08:28:39;6.63;;;2.70;;
38455;SDS011;24237;50.106;20.014;2023-04-15T08:31:06;7.05;;;3.03;;
38455;SDS011;24237;50.106;20.014;2023-04-15T08:33:32;6.03;;;2.30;;
38455;SDS011;24237;50.106;20.014;2023-04-15T08:35:58;6.72;;;2.88;;
38455;SDS011;24237;50.106;20.014;2023-04-15T08:38:23;3.65;;;2.50;;
38455;SDS011;24237;50.106;20.014;2023-04-15T08:40:49;5.47;;;2.53;;
38455;SDS011;24237;50.106;20.014;2023-04-15T08:43:22;2.92;;;2.05;;
38455;SDS011;24237;50.106;20.014;2023-04-15T08:45:50;7.88;;;2.42;;
38455;SDS011;24237;50.106;20.014;2023-04-15T08:48:17;5.75;;;2.42;;
38455;SDS011;24237;50.106;20.014;2023-04-15T08:50:43;4.65;;;2.00;;
38455;SDS011;24237;50.106;20.014;2023-04-15T08:53:10;3.55;;;2.08;;
38455;SDS011;24237;50.106;20.014;2023-04-15T08:55:39;4.60;;;2.00;;
38455;SDS011;24237;50.106;20.014;2023-04-15T08:58:10;5.20;;;2.17;;
38455;SDS011;24237;50.106;20.014;2023-04-15T09:00:37;3.55;;;2.53;;
38455;SDS011;24237;50.106;20.014;2023-04-15T09:03:04;5.43;;;2.40;;
38455;SDS011;24237;50.106;20.014;2023-04-15T09:05:31;5.18;;;2.50;;
38455;SDS011;24237;50.106;20.014;2023-04-15T09:07:58;4.20;;;2.27;;
38455;SDS011;24237;50.106;20.014;2023-04-15T09:10:24;9.20;;;2.45;;
38455;SDS011;24237;50.106;20.014;2023-04-15T09:12:50;4.25;;;1.88;;
38455;SDS011;24237;50.106;20.014;2023-04-15T09:15:15;3.22;;;1.60;;
38455;SDS011;24237;50.106;20.014;2023-04-15T09:17:45;6.38;;;1.80;;
38455;SDS011;24237;50.106;20.014;2023-04-15T09:20:14;2.05;;;1.27;;
38455;SDS011;24237;50.106;20.014;2023-04-15T09:22:41;1.75;;;0.82;;
38455;SDS011;24237;50.106;20.014;2023-04-15T09:27:51;10.15;;;3.20;;
38455;SDS011;24237;50.106;20.014;2023-04-15T09:30:17;8.43;;;4.03;;
38455;SDS011;24237;50.106;20.014;2023-04-15T09:32:53;2.63;;;1.50;;
38455;SDS011;24237;50.106;20.014;2023-04-15T09:35:24;2.33;;;1.70;;
38455;SDS011;24237;50.106;20.014;2023-04-15T09:37:51;3.78;;;1.45;;
38455;SDS011;24237;50.106;20.014;2023-04-15T09:40:30;10.10;;;2.20;;
38455;SDS011;24237;50.106;20.014;2023-04-15T09:42:57;3.15;;;1.90;;
38455;SDS011;24237;50.106;20.014;2023-04-15T09:45:23;3.15;;;1.80;;
38455;SDS011;24237;50.106;20.014;2023-04-15T09:47:49;5.32;;;2.10;;
38455;SDS011;24237;50.106;20.014;2023-04-15T09:50:15;5.28;;;1.85;;
38455;SDS011;24237;50.106;20.014;2023-04-15T09:52:42;4.93;;;2.42;;
38455;SDS011;24237;50.106;20.014;2023-04-15T09:55:08;3.83;;;2.07;;
38455;SDS011;24237;50.106;20.014;2023-04-15T09:57:35;8.05;;;1.70;;
38455;SDS011;24237;50.106;20.014;2023-04-15T10:00:05;3.63;;;2.33;;
38455;SDS011;24237;50.106;20.014;2023-04-15T10:02:33;2.95;;;1.70;;
38455;SDS011;24237;50.106;20.014;2023-04-15T10:04:59;3.75;;;1.52;;
38455;SDS011;24237;50.106;20.014;2023-04-15T10:07:25;3.70;;;1.70;;
38455;SDS011;24237;50.106;20.014;2023-04-15T10:09:51;2.75;;;1.48;;
38455;SDS011;24237;50.106;20.014;2023-04-15T10:12:18;3.60;;;1.83;;
38455;SDS011;24237;50.106;20.014;2023-04-15T10:14:47;6.13;;;1.75;;
38455;SDS011;24237;50.106;20.014;2023-04-15T10:17:17;11.75;;;2.38;;
38455;SDS011;24237;50.106;20.014;2023-04-15T10:19:46;4.60;;;1.75;;
38455;SDS011;24237;50.106;20.014;2023-04-15T10:22:13;3.90;;;2.13;;
38455;SDS011;24237;50.106;20.014;2023-04-15T10:24:39;4.22;;;2.30;;
38455;SDS011;24237;50.106;20.014;2023-04-15T10:27:05;13.80;;;7.00;;
38455;SDS011;24237;50.106;20.014;2023-04-15T10:29:31;3.67;;;1.70;;
38455;SDS011;24237;50.106;20.014;2023-04-15T10:31:58;8.10;;;1.42;;
38455;SDS011;24237;50.106;20.014;2023-04-15T10:34:24;5.68;;;1.83;;
38455;SDS011;24237;50.106;20.014;2023-04-15T10:36:53;3.45;;;1.88;;
38455;SDS011;24237;50.106;20.014;2023-04-15T10:39:39;4.90;;;2.08;;
38455;SDS011;24237;50.106;20.014;2023-04-15T10:42:07;2.97;;;1.55;;
38455;SDS011;24237;50.106;20.014;2023-04-15T10:44:35;4.88;;;1.70;;
38455;SDS011;24237;50.106;20.014;2023-04-15T10:51:57;5.45;;;1.98;;
38455;SDS011;24237;50.106;20.014;2023-04-15T11:01:59;5.88;;;3.15;;
38455;SDS011;24237;50.106;20.014;2023-04-15T11:04:53;5.10;;;2.35;;
38455;SDS011;24237;50.106;20.014;2023-04-15T11:12:45;4.43;;;2.15;;
38455;SDS011;24237;50.106;20.014;2023-04-15T11:18:11;6.57;;;1.90;;
38455;SDS011;24237;50.106;20.014;2023-04-15T11:20:41;4.97;;;2.05;;
38455;SDS011;24237;50.106;20.014;2023-04-15T11:23:12;3.42;;;2.10;;
38455;SDS011;24237;50.106;20.014;2023-04-15T11:25:42;5.30;;;2.55;;
38455;SDS011;24237;50.106;20.014;2023-04-15T11:28:08;5.43;;;2.38;;
38455;SDS011;24237;50.106;20.014;2023-04-15T11:30:35;4.63;;;2.28;;
38455;SDS011;24237;50.106;20.014;2023-04-15T11:33:05;5.50;;;2.10;;
38455;SDS011;24237;50.106;20.014;2023-04-15T11:35:36;3.92;;;2.38;;
38455;SDS011;24237;50.106;20.014;2023-04-15T11:38:05;4.03;;;2.55;;
38455;SDS011;24237;50.106;20.014;2023-04-15T11:40:34;6.78;;;2.40;;
38455;SDS011;24237;50.106;20.014;2023-04-15T11:43:18;8.18;;;3.05;;
38455;SDS011;24237;50.106;20.014;2023-04-15T11:48:17;5.45;;;2.83;;
38455;SDS011;24237;50.106;20.014;2023-04-15T11:50:43;6.70;;;2.70;;
38455;SDS011;24237;50.106;20.014;2023-04-15T11:53:10;4.22;;;2.90;;
38455;SDS011;24237;50.106;20.014;2023-04-15T11:55:43;4.55;;;2.50;;
38455;SDS011;24237;50.106;20.014;2023-04-15T12:00:41;4.22;;;2.15;;
38455;SDS011;24237;50.106;20.014;2023-04-15T12:03:17;4.78;;;1.85;;
38455;SDS011;24237;50.106;20.014;2023-04-15T12:11:50;6.45;;;2.42;;
38455;SDS011;24237;50.106;20.014;2023-04-15T12:14:25;4.22;;;2.20;;
38455;SDS011;24237;50.106;20.014;2023-04-15T12:16:57;6.88;;;2.40;;
38455;SDS011;24237;50.106;20.014;2023-04-15T12:21:53;2.58;;;1.90;;
38455;SDS011;24237;50.106;20.014;2023-04-15T12:24:23;4.70;;;2.20;;
38455;SDS011;24237;50.106;20.014;2023-04-15T12:26:52;9.65;;;2.17;;
38455;SDS011;24237;50.106;20.014;2023-04-15T12:29:24;3.72;;;1.48;;
38455;SDS011;24237;50.106;20.014;2023-04-15T12:31:55;3.40;;;1.80;;
38455;SDS011;24237;50.106;20.014;2023-04-15T12:34:30;3.83;;;2.13;;
38455;SDS011;24237;50.106;20.014;2023-04-15T12:36:59;10.35;;;5.53;;
38455;SDS011;24237;50.106;20.014;2023-04-15T12:39:27;7.75;;;2.88;;
38455;SDS011;24237;50.106;20.014;2023-04-15T12:41:55;4.07;;;2.25;;
38455;SDS011;24237;50.106;20.014;2023-04-15T12:44:21;4.00;;;2.08;;
38455;SDS011;24237;50.106;20.014;2023-04-15T12:46:48;4.10;;;2.00;;
38455;SDS011;24237;50.106;20.014;2023-04-15T12:49:14;5.63;;;2.35;;
38455;SDS011;24237;50.106;20.014;2023-04-15T12:51:40;4.22;;;1.95;;
38455;SDS011;24237;50.106;20.014;2023-04-15T12:54:06;4.55;;;2.35;;
38455;SDS011;24237;50.106;20.014;2023-04-15T12:56:31;3.95;;;1.73;;
38455;SDS011;24237;50.106;20.014;2023-04-15T12:58:57;4.88;;;2.55;;
38455;SDS011;24237;50.106;20.014;2023-04-15T13:01:23;3.42;;;1.90;;
38455;SDS011;24237;50.106;20.014;2023-04-15T13:03:48;3.95;;;1.92;;
38455;SDS011;24237;50.106;20.014;2023-04-15T13:06:15;3.70;;;1.90;;
38455;SDS011;24237;50.106;20.014;2023-04-15T13:08:41;3.38;;;1.92;;
38455;SDS011;24237;50.106;20.014;2023-04-15T13:11:07;2.92;;;1.65;;
38455;SDS011;24237;50.106;20.014;2023-04-15T13:13:32;3.40;;;1.70;;
38455;SDS011;24237;50.106;20.014;2023-04-15T13:15:58;2.38;;;1.65;;
38455;SDS011;24237;50.106;20.014;2023-04-15T13:18:24;4.07;;;1.77;;
38455;SDS011;24237;50.106;20.014;2023-04-15T13:20:50;2.55;;;1.63;;
38455;SDS011;24237;50.106;20.014;2023-04-15T13:23:16;5.57;;;2.10;;
38455;SDS011;24237;50.106;20.014;2023-04-15T13:25:41;4.88;;;1.48;;
38455;SDS011;24237;50.106;20.014;2023-04-15T13:28:07;2.83;;;2.05;;
38455;SDS011;24237;50.106;20.014;2023-04-15T13:30:36;5.88;;;2.30;;
38455;SDS011;24237;50.106;20.014;2023-04-15T13:33:02;3.75;;;2.05;;
38455;SDS011;24237;50.106;20.014;2023-04-15T13:35:28;4.57;;;2.25;;
38455;SDS011;24237;50.106;20.014;2023-04-15T13:37:53;5.93;;;2.30;;
38455;SDS011;24237;50.106;20.014;2023-04-15T13:40:20;3.85;;;1.60;;
38455;SDS011;24237;50.106;20.014;2023-04-15T13:42:45;3.47;;;1.77;;
38455;SDS011;24237;50.106;20.014;2023-04-15T13:45:11;3.42;;;1.80;;
38455;SDS011;24237;50.106;20.014;2023-04-15T13:47:37;4.03;;;1.75;;
38455;SDS011;24237;50.106;20.014;2023-04-15T13:50:03;3.08;;;1.88;;
38455;SDS011;24237;50.106;20.014;2023-04-15T13:52:29;4.93;;;2.07;;
38455;SDS011;24237;50.106;20.014;2023-04-15T13:54:55;3.40;;;1.75;;
38455;SDS011;24237;50.106;20.014;2023-04-15T13:57:20;2.38;;;1.58;;
38455;SDS011;24237;50.106;20.014;2023-04-15T13:59:46;3.42;;;1.63;;
38455;SDS011;24237;50.106;20.014;2023-04-15T14:02:12;5.18;;;1.40;;
38455;SDS011;24237;50.106;20.014;2023-04-15T14:04:37;4.20;;;1.77;;
38455;SDS011;24237;50.106;20.014;2023-04-15T14:07:03;3.30;;;1.95;;
38455;SDS011;24237;50.106;20.014;2023-04-15T14:09:29;5.17;;;1.67;;
38455;SDS011;24237;50.106;20.014;2023-04-15T14:11:55;3.03;;;1.55;;
38455;SDS011;24237;50.106;20.014;2023-04-15T14:14:21;1.73;;;1.50;;
38455;SDS011;24237;50.106;20.014;2023-04-15T14:16:47;4.45;;;2.42;;
38455;SDS011;24237;50.106;20.014;2023-04-15T14:19:13;6.30;;;2.38;;
38455;SDS011;24237;50.106;20.014;2023-04-15T14:21:39;5.63;;;2.90;;
38455;SDS011;24237;50.106;20.014;2023-04-15T14:24:04;3.90;;;2.05;;
38455;SDS011;24237;50.106;20.014;2023-04-15T14:26:30;4.65;;;2.33;;
38455;SDS011;24237;50.106;20.014;2023-04-15T14:28:56;4.80;;;1.98;;
38455;SDS011;24237;50.106;20.014;2023-04-15T14:31:22;4.95;;;2.05;;
38455;SDS011;24237;50.106;20.014;2023-04-15T14:33:47;3.63;;;1.75;;
38455;SDS011;24237;50.106;20.014;2023-04-15T14:36:13;2.80;;;1.80;;
38455;SDS011;24237;50.106;20.014;2023-04-15T14:38:39;3.95;;;1.90;;
38455;SDS011;24237;50.106;20.014;2023-04-15T14:41:05;19.63;;;2.83;;
38455;SDS011;24237;50.106;20.014;2023-04-15T14:43:32;8.13;;;2.05;;
38455;SDS011;24237;50.106;20.014;2023-04-15T14:45:58;17.25;;;2.42;;
38455;SDS011;24237;50.106;20.014;2023-04-15T14:48:23;3.08;;;2.30;;
38455;SDS011;24237;50.106;20.014;2023-04-15T14:50:52;4.43;;;2.00;;
38455;SDS011;24237;50.106;20.014;2023-04-15T14:53:18;5.45;;;2.70;;
38455;SDS011;24237;50.106;20.014;2023-04-15T14:55:44;11.60;;;6.97;;
38455;SDS011;24237;50.106;20.014;2023-04-15T14:58:10;10.00;;;2.78;;
38455;SDS011;24237;50.106;20.014;2023-04-15T15:00:38;5.00;;;2.28;;
38455;SDS011;24237;50.106;20.014;2023-04-15T15:03:06;3.35;;;2.05;;
38455;SDS011;24237;50.106;20.014;2023-04-15T15:05:42;4.13;;;2.58;;
38455;SDS011;24237;50.106;20.014;2023-04-15T15:08:10;8.75;;;2.72;;
38455;SDS011;24237;50.106;20.014;2023-04-15T15:10:37;4.17;;;2.93;;
38455;SDS011;24237;50.106;20.014;2023-04-15T15:13:04;4.07;;;2.95;;
38455;SDS011;24237;50.106;20.014;2023-04-15T15:15:32;4.95;;;3.38;;